sensor_id;sensor_type;location;lat;lon;timestamp;pressure;altitude;pressure_sealevel;temperature;humidity
27358;BME280;14831;50.474;7.616;2023-05-16T00:01:24;98050;;;10.2;88.7
27358;BME280;14831;50.474;7.616;2023-05-16T00:06:24;98050;;;10.1;88.6
27358;BME280;14831;50.474;7.616;2023-05-16T00:11:24;98050;;;10.0;88.4
27358;BME280;14831;50.474;7.616;2023-05-16T00:16:24;98050;;;9.9;89.0
27358;BME280;14831;50.474;7.616;2023-05-16T00:21:24;98050;;;9.9;88.9
27358;BME280;14831;50.474;7.616;2023-05-16T00:26:24;98050;;;9.9;89.3
27358;BME280;14831;50.474;7.616;2023-05-16T00:31:24;98060;;;9.8;89.8
27358;BME280;14831;50.474;7.616;2023-05-16T00:36:24;98060;;;9.8;90.4
27358;BME280;14831;50.474;7.616;2023-05-16T00:41:24;98060;;;9.7;90.9
27358;BME280;14831;50.474;7.616;2023-05-16T00:46:24;98060;;;9.7;92.0
27358;BME280;14831;50.474;7.616;2023-05-16T00:51:24;98060;;;9.6;92.4
27358;BME280;14831;50.474;7.616;2023-05-16T00:56:24;98050;;;9.5;92.9
27358;BME280;14831;50.474;7.616;2023-05-16T01:01:24;98060;;;9.5;93.5
27358;BME280;14831;50.474;7.616;2023-05-16T01:06:24;98050;;;9.5;93.6
27358;BME280;14831;50.474;7.616;2023-05-16T01:11:26;98050;;;9.5;94.4
27358;BME280;14831;50.474;7.616;2023-05-16T01:16:25;98050;;;9.4;94.6
27358;BME280;14831;50.474;7.616;2023-05-16T01:21:28;98050;;;9.4;95.1
27358;BME280;14831;50.474;7.616;2023-05-16T01:26:25;98050;;;9.3;94.5
27358;BME280;14831;50.474;7.616;2023-05-16T01:31:24;98050;;;9.2;94.9
27358;BME280;14831;50.474;7.616;2023-05-16T01:36:24;98050;;;9.3;95.4
27358;BME280;14831;50.474;7.616;2023-05-16T01:41:26;98040;;;9.2;95.8
27358;BME280;14831;50.474;7.616;2023-05-16T01:46:25;98050;;;9.1;95.7
27358;BME280;14831;50.474;7.616;2023-05-16T01:51:25;98030;;;9.1;96.3
27358;BME280;14831;50.474;7.616;2023-05-16T01:56:24;98040;;;9.1;96.8
27358;BME280;14831;50.474;7.616;2023-05-16T02:01:24;98050;;;9.0;96.9
27358;BME280;14831;50.474;7.616;2023-05-16T02:06:24;98050;;;8.9;97.4
27358;BME280;14831;50.474;7.616;2023-05-16T02:11:24;98060;;;8.9;97.6
27358;BME280;14831;50.474;7.616;2023-05-16T02:16:24;98050;;;8.9;97.6
27358;BME280;14831;50.474;7.616;2023-05-16T02:21:24;98040;;;8.8;97.6
27358;BME280;14831;50.474;7.616;2023-05-16T02:26:24;98040;;;8.8;97.6
27358;BME280;14831;50.474;7.616;2023-05-16T02:31:25;98050;;;8.8;97.6
27358;BME280;14831;50.474;7.616;2023-05-16T02:36:24;98050;;;8.8;97.2
27358;BME280;14831;50.474;7.616;2023-05-16T02:41:24;98050;;;8.7;97.2
27358;BME280;14831;50.474;7.616;2023-05-16T02:46:25;98050;;;8.8;97.6
27358;BME280;14831;50.474;7.616;2023-05-16T02:51:25;98050;;;8.7;97.6
27358;BME280;14831;50.474;7.616;2023-05-16T02:56:24;98050;;;8.7;97.6
27358;BME280;14831;50.474;7.616;2023-05-16T03:01:24;98060;;;8.7;97.6
27358;BME280;14831;50.474;7.616;2023-05-16T03:06:24;98060;;;8.7;97.5
27358;BME280;14831;50.474;7.616;2023-05-16T03:11:25;98060;;;8.6;97.5
27358;BME280;14831;50.474;7.616;2023-05-16T03:16:24;98070;;;8.6;97.5
27358;BME280;14831;50.474;7.616;2023-05-16T03:21:24;98070;;;8.6;97.5
27358;BME280;14831;50.474;7.616;2023-05-16T03:26:24;98080;;;8.6;97.5
27358;BME280;14831;50.474;7.616;2023-05-16T03:31:24;98080;;;8.6;97.5
27358;BME280;14831;50.474;7.616;2023-05-16T03:36:24;98090;;;8.6;97.5
27358;BME280;14831;50.474;7.616;2023-05-16T03:41:24;98090;;;8.6;97.5
27358;BME280;14831;50.474;7.616;2023-05-16T03:46:24;98090;;;8.5;97.5
27358;BME280;14831;50.474;7.616;2023-05-16T03:51:24;98090;;;8.6;97.5
27358;BME280;14831;50.474;7.616;2023-05-16T03:56:24;98100;;;8.5;97.4
27358;BME280;14831;50.474;7.616;2023-05-16T04:01:24;98110;;;8.4;97.0
27358;BME280;14831;50.474;7.616;2023-05-16T04:06:24;98110;;;8.4;96.5
27358;BME280;14831;50.474;7.616;2023-05-16T04:11:24;98130;;;8.4;96.6
27358;BME280;14831;50.474;7.616;2023-05-16T04:16:24;98130;;;8.3;96.3
27358;BME280;14831;50.474;7.616;2023-05-16T04:21:24;98120;;;8.3;96.2
27358;BME280;14831;50.474;7.616;2023-05-16T04:26:24;98130;;;8.2;95.4
27358;BME280;14831;50.474;7.616;2023-05-16T04:31:24;98140;;;8.2;95.8
27358;BME280;14831;50.474;7.616;2023-05-16T04:36:24;98150;;;8.2;96.1
27358;BME280;14831;50.474;7.616;2023-05-16T04:41:24;98150;;;8.1;96.1
27358;BME280;14831;50.474;7.616;2023-05-16T04:46:24;98150;;;8.1;96.6
27358;BME280;14831;50.474;7.616;2023-05-16T04:51:24;98150;;;8.1;97.0
27358;BME280;14831;50.474;7.616;2023-05-16T04:56:24;98150;;;8.0;97.5
27358;BME280;14831;50.474;7.616;2023-05-16T05:01:24;98170;;;8.0;97.4
27358;BME280;14831;50.474;7.616;2023-05-16T05:06:24;98170;;;7.8;97.1
27358;BME280;14831;50.474;7.616;2023-05-16T05:11:24;98180;;;7.8;96.8
27358;BME280;14831;50.474;7.616;2023-05-16T05:16:24;98180;;;7.7;96.8
27358;BME280;14831;50.474;7.616;2023-05-16T05:21:25;98180;;;7.5;96.3
27358;BME280;14831;50.474;7.616;2023-05-16T05:26:24;98190;;;7.4;95.5
27358;BME280;14831;50.474;7.616;2023-05-16T05:31:24;98190;;;7.4;95.6
27358;BME280;14831;50.474;7.616;2023-05-16T05:36:24;98200;;;7.4;95.8
27358;BME280;14831;50.474;7.616;2023-05-16T05:41:24;98220;;;7.3;95.3
27358;BME280;14831;50.474;7.616;2023-05-16T05:46:24;98220;;;7.3;94.6
27358;BME280;14831;50.474;7.616;2023-05-16T05:51:24;98230;;;7.4;95.0
27358;BME280;14831;50.474;7.616;2023-05-16T05:56:24;98230;;;7.2;94.4
27358;BME280;14831;50.474;7.616;2023-05-16T06:01:24;98240;;;7.2;95.3
27358;BME280;14831;50.474;7.616;2023-05-16T06:06:24;98250;;;7.2;95.0
27358;BME280;14831;50.474;7.616;2023-05-16T06:11:24;98260;;;7.1;94.7
27358;BME280;14831;50.474;7.616;2023-05-16T06:16:24;98270;;;7.1;93.6
27358;BME280;14831;50.474;7.616;2023-05-16T06:21:24;98270;;;7.1;93.7
27358;BME280;14831;50.474;7.616;2023-05-16T06:26:24;98280;;;7.1;93.5
27358;BME280;14831;50.474;7.616;2023-05-16T06:31:24;98290;;;7.2;93.3
27358;BME280;14831;50.474;7.616;2023-05-16T06:36:24;98290;;;7.2;93.0
27358;BME280;14831;50.474;7.616;2023-05-16T06:41:24;98300;;;7.2;92.3
27358;BME280;14831;50.474;7.616;2023-05-16T06:46:24;98300;;;7.3;91.5
27358;BME280;14831;50.474;7.616;2023-05-16T06:51:24;98310;;;7.3;91.8
27358;BME280;14831;50.474;7.616;2023-05-16T06:56:24;98310;;;7.4;90.8
27358;BME280;14831;50.474;7.616;2023-05-16T07:01:24;98310;;;7.3;90.9
27358;BME280;14831;50.474;7.616;2023-05-16T07:06:24;98300;;;7.3;90.9
27358;BME280;14831;50.474;7.616;2023-05-16T07:11:24;98330;;;7.1;91.3
27358;BME280;14831;50.474;7.616;2023-05-16T07:16:24;98330;;;7.0;90.1
27358;BME280;14831;50.474;7.616;2023-05-16T07:21:24;98340;;;7.0;90.1
27358;BME280;14831;50.474;7.616;2023-05-16T07:26:24;98340;;;7.0;91.7
27358;BME280;14831;50.474;7.616;2023-05-16T07:31:24;98340;;;6.9;91.1
27358;BME280;14831;50.474;7.616;2023-05-16T07:36:24;98350;;;6.8;90.8
27358;BME280;14831;50.474;7.616;2023-05-16T07:41:24;98360;;;6.8;90.3
27358;BME280;14831;50.474;7.616;2023-05-16T07:46:24;98360;;;6.9;88.7
27358;BME280;14831;50.474;7.616;2023-05-16T07:51:24;98360;;;7.1;89.2
27358;BME280;14831;50.474;7.616;2023-05-16T07:56:24;98370;;;7.1;87.0
27358;BME280;14831;50.474;7.616;2023-05-16T08:01:24;98370;;;7.1;86.3
27358;BME280;14831;50.474;7.616;2023-05-16T08:06:24;98380;;;7.4;85.3
27358;BME280;14831;50.474;7.616;2023-05-16T08:11:24;98390;;;7.4;81.4
27358;BME280;14831;50.474;7.616;2023-05-16T08:16:24;98380;;;8.0;80.7
27358;BME280;14831;50.474;7.616;2023-05-16T08:21:24;98370;;;8.4;77.0
27358;BME280;14831;50.474;7.616;2023-05-16T08:26:24;98380;;;9.2;75.5
27358;BME280;14831;50.474;7.616;2023-05-16T08:31:24;98380;;;8.8;73.9
27358;BME280;14831;50.474;7.616;2023-05-16T08:36:24;98390;;;8.6;78.2
27358;BME280;14831;50.474;7.616;2023-05-16T08:41:24;98390;;;8.0;76.5
27358;BME280;14831;50.474;7.616;2023-05-16T08:46:24;98390;;;8.0;74.3
27358;BME280;14831;50.474;7.616;2023-05-16T08:51:25;98400;;;8.2;73.0
27358;BME280;14831;50.474;7.616;2023-05-16T08:56:24;98400;;;9.2;68.8
27358;BME280;14831;50.474;7.616;2023-05-16T09:01:24;98400;;;9.5;68.5
27358;BME280;14831;50.474;7.616;2023-05-16T09:06:24;98410;;;9.6;64.0
27358;BME280;14831;50.474;7.616;2023-05-16T09:11:24;98420;;;9.4;70.2
27358;BME280;14831;50.474;7.616;2023-05-16T09:16:24;98430;;;8.9;69.9
27358;BME280;14831;50.474;7.616;2023-05-16T09:21:25;98420;;;8.6;68.6
27358;BME280;14831;50.474;7.616;2023-05-16T09:26:24;98430;;;9.6;67.4
27358;BME280;14831;50.474;7.616;2023-05-16T09:31:25;98420;;;10.1;64.6
27358;BME280;14831;50.474;7.616;2023-05-16T09:36:24;98440;;;10.0;62.3
27358;BME280;14831;50.474;7.616;2023-05-16T09:41:24;98430;;;10.0;62.9
27358;BME280;14831;50.474;7.616;2023-05-16T09:46:24;98440;;;9.9;66.9
27358;BME280;14831;50.474;7.616;2023-05-16T09:51:24;98450;;;9.6;63.9
27358;BME280;14831;50.474;7.616;2023-05-16T09:56:24;98450;;;9.7;62.5
27358;BME280;14831;50.474;7.616;2023-05-16T10:01:24;98440;;;10.5;61.8
27358;BME280;14831;50.474;7.616;2023-05-16T10:06:24;98440;;;11.2;59.3
27358;BME280;14831;50.474;7.616;2023-05-16T10:11:24;98440;;;10.5;59.0
27358;BME280;14831;50.474;7.616;2023-05-16T10:16:24;98430;;;10.4;57.4
27358;BME280;14831;50.474;7.616;2023-05-16T10:21:24;98430;;;10.9;56.4
27358;BME280;14831;50.474;7.616;2023-05-16T10:26:24;98430;;;11.3;58.0
27358;BME280;14831;50.474;7.616;2023-05-16T10:31:24;98450;;;10.9;56.1
27358;BME280;14831;50.474;7.616;2023-05-16T10:36:24;98430;;;10.7;52.8
27358;BME280;14831;50.474;7.616;2023-05-16T10:41:24;98430;;;11.3;55.6
27358;BME280;14831;50.474;7.616;2023-05-16T10:46:25;98450;;;10.8;56.5
27358;BME280;14831;50.474;7.616;2023-05-16T10:51:39;98450;;;11.0;55.3
27358;BME280;14831;50.474;7.616;2023-05-16T10:56:25;98450;;;11.8;55.1
27358;BME280;14831;50.474;7.616;2023-05-16T11:01:25;98440;;;11.2;51.6
27358;BME280;14831;50.474;7.616;2023-05-16T11:06:25;98440;;;11.6;53.2
27358;BME280;14831;50.474;7.616;2023-05-16T11:11:40;98440;;;11.3;49.9
27358;BME280;14831;50.474;7.616;2023-05-16T11:16:25;98440;;;11.5;53.7
27358;BME280;14831;50.474;7.616;2023-05-16T11:21:31;98450;;;11.7;53.0
27358;BME280;14831;50.474;7.616;2023-05-16T11:26:24;98450;;;12.0;51.6
27358;BME280;14831;50.474;7.616;2023-05-16T11:31:24;98450;;;11.9;49.2
27358;BME280;14831;50.474;7.616;2023-05-16T11:36:24;98450;;;11.6;51.9
27358;BME280;14831;50.474;7.616;2023-05-16T11:41:24;98460;;;11.4;52.5
27358;BME280;14831;50.474;7.616;2023-05-16T11:46:24;98460;;;11.6;54.1
27358;BME280;14831;50.474;7.616;2023-05-16T11:51:24;98460;;;11.8;51.5
27358;BME280;14831;50.474;7.616;2023-05-16T11:56:24;98460;;;11.6;50.1
27358;BME280;14831;50.474;7.616;2023-05-16T12:01:24;98460;;;11.7;52.4
27358;BME280;14831;50.474;7.616;2023-05-16T12:06:24;98470;;;11.5;47.6
27358;BME280;14831;50.474;7.616;2023-05-16T12:11:24;98460;;;12.3;47.3
27358;BME280;14831;50.474;7.616;2023-05-16T12:16:24;98460;;;12.4;48.0
27358;BME280;14831;50.474;7.616;2023-05-16T12:21:24;98450;;;11.8;50.3
27358;BME280;14831;50.474;7.616;2023-05-16T12:26:24;98470;;;11.8;47.6
27358;BME280;14831;50.474;7.616;2023-05-16T12:31:24;98450;;;12.6;49.5
27358;BME280;14831;50.474;7.616;2023-05-16T12:36:24;98470;;;12.3;49.4
27358;BME280;14831;50.474;7.616;2023-05-16T12:41:24;98470;;;11.6;48.6
27358;BME280;14831;50.474;7.616;2023-05-16T12:46:24;98470;;;11.6;46.9
27358;BME280;14831;50.474;7.616;2023-05-16T12:51:26;98470;;;12.4;47.0
27358;BME280;14831;50.474;7.616;2023-05-16T12:56:24;98470;;;11.7;47.8
27358;BME280;14831;50.474;7.616;2023-05-16T13:01:24;98470;;;11.7;50.0
27358;BME280;14831;50.474;7.616;2023-05-16T13:06:24;98480;;;12.2;44.6
27358;BME280;14831;50.474;7.616;2023-05-16T13:11:24;98480;;;12.3;48.8
27358;BME280;14831;50.474;7.616;2023-05-16T13:16:24;98480;;;12.2;48.4
27358;BME280;14831;50.474;7.616;2023-05-16T13:21:24;98490;;;12.3;48.8
27358;BME280;14831;50.474;7.616;2023-05-16T13:26:24;98480;;;12.2;46.7
27358;BME280;14831;50.474;7.616;2023-05-16T13:31:24;98490;;;11.9;48.0
27358;BME280;14831;50.474;7.616;2023-05-16T13:36:24;98500;;;11.8;48.1
27358;BME280;14831;50.474;7.616;2023-05-16T13:41:24;98490;;;11.6;48.2
27358;BME280;14831;50.474;7.616;2023-05-16T13:46:24;98490;;;11.8;47.6
27358;BME280;14831;50.474;7.616;2023-05-16T13:51:24;98490;;;11.9;49.3
27358;BME280;14831;50.474;7.616;2023-05-16T13:56:24;98490;;;12.0;48.1
27358;BME280;14831;50.474;7.616;2023-05-16T14:01:25;98500;;;12.3;47.4
27358;BME280;14831;50.474;7.616;2023-05-16T14:06:24;98490;;;12.3;46.1
27358;BME280;14831;50.474;7.616;2023-05-16T14:11:24;98500;;;12.6;48.1
27358;BME280;14831;50.474;7.616;2023-05-16T14:16:24;98500;;;12.6;47.0
27358;BME280;14831;50.474;7.616;2023-05-16T14:21:24;98500;;;12.4;48.8
27358;BME280;14831;50.474;7.616;2023-05-16T14:26:24;98500;;;12.0;48.3
27358;BME280;14831;50.474;7.616;2023-05-16T14:31:24;98500;;;12.1;49.7
27358;BME280;14831;50.474;7.616;2023-05-16T14:36:24;98490;;;12.0;49.7
27358;BME280;14831;50.474;7.616;2023-05-16T14:41:24;98500;;;12.1;50.1
27358;BME280;14831;50.474;7.616;2023-05-16T14:46:24;98480;;;12.3;51.1
27358;BME280;14831;50.474;7.616;2023-05-16T14:51:24;98490;;;12.1;52.4
27358;BME280;14831;50.474;7.616;2023-05-16T14:56:24;98500;;;12.7;50.0
27358;BME280;14831;50.474;7.616;2023-05-16T15:01:24;98500;;;13.3;49.8
27358;BME280;14831;50.474;7.616;2023-05-16T15:06:24;98500;;;12.7;48.3
27358;BME280;14831;50.474;7.616;2023-05-16T15:11:24;98500;;;12.6;49.9
27358;BME280;14831;50.474;7.616;2023-05-16T15:16:24;98510;;;12.5;50.6
27358;BME280;14831;50.474;7.616;2023-05-16T15:21:24;98510;;;12.4;49.9
27358;BME280;14831;50.474;7.616;2023-05-16T15:26:24;98520;;;12.2;49.1
27358;BME280;14831;50.474;7.616;2023-05-16T15:31:24;98530;;;12.0;50.9
27358;BME280;14831;50.474;7.616;2023-05-16T15:36:24;98520;;;11.9;51.2
27358;BME280;14831;50.474;7.616;2023-05-16T15:41:24;98530;;;11.9;50.9
27358;BME280;14831;50.474;7.616;2023-05-16T15:46:24;98540;;;12.0;51.1
27358;BME280;14831;50.474;7.616;2023-05-16T15:51:24;98550;;;11.9;51.9
27358;BME280;14831;50.474;7.616;2023-05-16T15:56:24;98540;;;12.0;54.0
27358;BME280;14831;50.474;7.616;2023-05-16T16:01:24;98530;;;12.0;54.8
27358;BME280;14831;50.474;7.616;2023-05-16T16:06:24;98550;;;11.7;53.5
27358;BME280;14831;50.474;7.616;2023-05-16T16:11:25;98560;;;11.6;55.1
27358;BME280;14831;50.474;7.616;2023-05-16T16:16:24;98560;;;11.6;55.4
27358;BME280;14831;50.474;7.616;2023-05-16T16:21:24;98550;;;11.5;54.8
27358;BME280;14831;50.474;7.616;2023-05-16T16:26:24;98550;;;11.5;54.6
27358;BME280;14831;50.474;7.616;2023-05-16T16:31:24;98560;;;11.5;55.1
27358;BME280;14831;50.474;7.616;2023-05-16T16:36:24;98540;;;11.6;54.0
27358;BME280;14831;50.474;7.616;2023-05-16T16:41:24;98550;;;11.7;55.1
27358;BME280;14831;50.474;7.616;2023-05-16T16:46:24;98550;;;11.9;53.5
27358;BME280;14831;50.474;7.616;2023-05-16T16:51:25;98550;;;12.1;53.6
27358;BME280;14831;50.474;7.616;2023-05-16T16:56:24;98550;;;11.9;52.6
27358;BME280;14831;50.474;7.616;2023-05-16T17:01:24;98550;;;12.0;53.7
27358;BME280;14831;50.474;7.616;2023-05-16T17:06:24;98540;;;12.1;54.5
27358;BME280;14831;50.474;7.616;2023-05-16T17:11:24;98540;;;12.4;54.7
27358;BME280;14831;50.474;7.616;2023-05-16T17:16:24;98550;;;12.2;54.7
27358;BME280;14831;50.474;7.616;2023-05-16T17:21:24;98550;;;12.0;54.6
27358;BME280;14831;50.474;7.616;2023-05-16T17:26:24;98560;;;11.7;52.0
27358;BME280;14831;50.474;7.616;2023-05-16T17:31:24;98550;;;11.6;52.0
27358;BME280;14831;50.474;7.616;2023-05-16T17:36:24;98550;;;11.8;52.5
27358;BME280;14831;50.474;7.616;2023-05-16T17:41:24;98560;;;11.9;52.5
27358;BME280;14831;50.474;7.616;2023-05-16T17:46:24;98560;;;12.0;53.0
27358;BME280;14831;50.474;7.616;2023-05-16T17:51:24;98560;;;12.1;52.2
27358;BME280;14831;50.474;7.616;2023-05-16T17:56:24;98550;;;11.9;52.3
27358;BME280;14831;50.474;7.616;2023-05-16T18:01:24;98560;;;11.8;52.4
27358;BME280;14831;50.474;7.616;2023-05-16T18:06:24;98550;;;11.6;53.8
27358;BME280;14831;50.474;7.616;2023-05-16T18:11:24;98560;;;11.2;56.2
27358;BME280;14831;50.474;7.616;2023-05-16T18:16:24;98580;;;11.0;57.0
27358;BME280;14831;50.474;7.616;2023-05-16T18:21:24;98570;;;10.9;57.0
27358;BME280;14831;50.474;7.616;2023-05-16T18:26:24;98600;;;10.8;57.9
27358;BME280;14831;50.474;7.616;2023-05-16T18:31:24;98590;;;10.7;58.1
27358;BME280;14831;50.474;7.616;2023-05-16T18:36:24;98580;;;10.5;59.0
27358;BME280;14831;50.474;7.616;2023-05-16T18:41:24;98590;;;10.4;60.5
27358;BME280;14831;50.474;7.616;2023-05-16T18:46:24;98590;;;10.3;60.4
27358;BME280;14831;50.474;7.616;2023-05-16T18:51:24;98590;;;10.1;61.3
27358;BME280;14831;50.474;7.616;2023-05-16T18:56:24;98600;;;10.0;61.2
27358;BME280;14831;50.474;7.616;2023-05-16T19:01:24;98600;;;9.9;61.8
27358;BME280;14831;50.474;7.616;2023-05-16T19:06:24;98620;;;9.8;62.3
27358;BME280;14831;50.474;7.616;2023-05-16T19:11:24;98620;;;9.7;62.9
27358;BME280;14831;50.474;7.616;2023-05-16T19:16:24;98620;;;9.6;62.8
27358;BME280;14831;50.474;7.616;2023-05-16T19:21:25;98620;;;9.5;64.1
27358;BME280;14831;50.474;7.616;2023-05-16T19:26:24;98630;;;9.5;63.4
27358;BME280;14831;50.474;7.616;2023-05-16T19:31:24;98640;;;9.4;63.7
27358;BME280;14831;50.474;7.616;2023-05-16T19:36:24;98640;;;9.2;64.4
27358;BME280;14831;50.474;7.616;2023-05-16T19:41:24;98640;;;9.2;65.6
27358;BME280;14831;50.474;7.616;2023-05-16T19:46:24;98650;;;9.2;64.6
27358;BME280;14831;50.474;7.616;2023-05-16T19:51:24;98650;;;9.2;65.4
27358;BME280;14831;50.474;7.616;2023-05-16T19:56:24;98660;;;9.1;65.7
27358;BME280;14831;50.474;7.616;2023-05-16T20:01:24;98660;;;9.0;66.6
27358;BME280;14831;50.474;7.616;2023-05-16T20:06:24;98660;;;8.9;67.6
27358;BME280;14831;50.474;7.616;2023-05-16T20:11:24;98670;;;8.8;68.5
27358;BME280;14831;50.474;7.616;2023-05-16T20:16:24;98680;;;8.8;69.1
27358;BME280;14831;50.474;7.616;2023-05-16T20:21:24;98660;;;8.8;68.8
27358;BME280;14831;50.474;7.616;2023-05-16T20:26:24;98670;;;8.8;69.0
27358;BME280;14831;50.474;7.616;2023-05-16T20:31:24;98670;;;8.7;69.7
27358;BME280;14831;50.474;7.616;2023-05-16T20:36:24;98680;;;8.7;69.5
27358;BME280;14831;50.474;7.616;2023-05-16T20:41:24;98690;;;8.7;69.9
27358;BME280;14831;50.474;7.616;2023-05-16T20:46:24;98680;;;8.7;70.4
27358;BME280;14831;50.474;7.616;2023-05-16T20:51:24;98680;;;8.6;70.6
27358;BME280;14831;50.474;7.616;2023-05-16T20:56:24;98690;;;8.6;70.8
27358;BME280;14831;50.474;7.616;2023-05-16T21:01:24;98690;;;8.7;70.7
27358;BME280;14831;50.474;7.616;2023-05-16T21:06:24;98690;;;8.6;71.0
27358;BME280;14831;50.474;7.616;2023-05-16T21:11:24;98690;;;8.7;71.1
27358;BME280;14831;50.474;7.616;2023-05-16T21:16:24;98700;;;8.7;71.4
27358;BME280;14831;50.474;7.616;2023-05-16T21:21:24;98690;;;8.7;71.1
27358;BME280;14831;50.474;7.616;2023-05-16T21:26:24;98680;;;8.8;71.2
27358;BME280;14831;50.474;7.616;2023-05-16T21:31:24;98680;;;8.7;71.7
27358;BME280;14831;50.474;7.616;2023-05-16T21:36:24;98690;;;8.7;72.5
27358;BME280;14831;50.474;7.616;2023-05-16T21:41:24;98690;;;8.7;72.7
27358;BME280;14831;50.474;7.616;2023-05-16T21:46:24;98700;;;8.7;73.0
27358;BME280;14831;50.474;7.616;2023-05-16T21:51:24;98700;;;8.7;73.1
27358;BME280;14831;50.474;7.616;2023-05-16T21:56:24;98710;;;8.6;73.5
27358;BME280;14831;50.474;7.616;2023-05-16T22:01:24;98710;;;8.6;73.7
27358;BME280;14831;50.474;7.616;2023-05-16T22:06:24;98720;;;8.6;73.7
27358;BME280;14831;50.474;7.616;2023-05-16T22:11:24;98720;;;8.6;73.9
27358;BME280;14831;50.474;7.616;2023-05-16T22:16:24;98720;;;8.5;74.4
27358;BME280;14831;50.474;7.616;2023-05-16T22:21:24;98720;;;8.5;74.9
27358;BME280;14831;50.474;7.616;2023-05-16T22:26:24;98720;;;8.3;75.4
27358;BME280;14831;50.474;7.616;2023-05-16T22:31:24;98720;;;8.2;75.5
27358;BME280;14831;50.474;7.616;2023-05-16T22:36:24;98720;;;8.1;76.1
27358;BME280;14831;50.474;7.616;2023-05-16T22:41:24;98720;;;8.0;76.6
27358;BME280;14831;50.474;7.616;2023-05-16T22:46:24;98720;;;7.9;77.2
27358;BME280;14831;50.474;7.616;2023-05-16T22:51:24;98730;;;7.8;77.6
27358;BME280;14831;50.474;7.616;2023-05-16T22:56:24;98730;;;7.7;77.9
27358;BME280;14831;50.474;7.616;2023-05-16T23:01:24;98730;;;7.7;78.2
27358;BME280;14831;50.474;7.616;2023-05-16T23:06:24;98730;;;7.6;78.3
27358;BME280;14831;50.474;7.616;2023-05-16T23:11:24;98720;;;7.5;78.6
27358;BME280;14831;50.474;7.616;2023-05-16T23:16:24;98730;;;7.5;78.9
27358;BME280;14831;50.474;7.616;2023-05-16T23:21:24;98720;;;7.4;79.1
27358;BME280;14831;50.474;7.616;2023-05-16T23:26:24;98720;;;7.3;79.2
27358;BME280;14831;50.474;7.616;2023-05-16T23:31:24;98730;;;7.3;79.2
27358;BME280;14831;50.474;7.616;2023-05-16T23:36:24;98720;;;7.3;79.0
27358;BME280;14831;50.474;7.616;2023-05-16T23:41:24;98720;;;7.3;79.4
27358;BME280;14831;50.474;7.616;2023-05-16T23:46:24;98730;;;7.2;80.0
27358;BME280;14831;50.474;7.616;2023-05-16T23:51:24;98740;;;7.0;80.8
27358;BME280;14831;50.474;7.616;2023-05-16T23:56:24;98730;;;7.0;81.1
